sensor_id;sensor_type;location;lat;lon;timestamp;P1;durP1;ratioP1;P2;durP2;ratioP2
59830;SDS011;45711;50.108;13.712;2023-09-19T00:00:21;4.18;;;1.65;;
59830;SDS011;45711;50.108;13.712;2023-09-19T00:02:53;5.05;;;1.60;;
59830;SDS011;45711;50.108;13.712;2023-09-19T00:05:21;2.47;;;1.35;;
59830;SDS011;45711;50.108;13.712;2023-09-19T00:07:50;1.75;;;1.20;;
59830;SDS011;45711;50.108;13.712;2023-09-19T00:10:19;2.65;;;1.40;;
59830;SDS011;45711;50.108;13.712;2023-09-19T00:12:45;4.72;;;1.50;;
59830;SDS011;45711;50.108;13.712;2023-09-19T00:15:11;2.70;;;1.52;;
59830;SDS011;45711;50.108;13.712;2023-09-19T00:17:36;2.33;;;1.40;;
59830;SDS011;45711;50.108;13.712;2023-09-19T00:20:02;2.70;;;1.48;;
59830;SDS011;45711;50.108;13.712;2023-09-19T00:22:33;3.25;;;1.30;;
59830;SDS011;45711;50.108;13.712;2023-09-19T00:24:59;5.25;;;1.65;;
59830;SDS011;45711;50.108;13.712;2023-09-19T00:27:26;3.53;;;1.48;;
59830;SDS011;45711;50.108;13.712;2023-09-19T00:29:51;4.50;;;1.50;;
59830;SDS011;45711;50.108;13.712;2023-09-19T00:32:19;5.38;;;1.50;;
59830;SDS011;45711;50.108;13.712;2023-09-19T00:34:45;3.67;;;1.63;;
59830;SDS011;45711;50.108;13.712;2023-09-19T00:37:10;5.30;;;1.42;;
59830;SDS011;45711;50.108;13.712;2023-09-19T00:39:37;3.78;;;1.55;;
59830;SDS011;45711;50.108;13.712;2023-09-19T00:42:03;7.30;;;1.30;;
59830;SDS011;45711;50.108;13.712;2023-09-19T00:44:30;6.30;;;1.90;;
59830;SDS011;45711;50.108;13.712;2023-09-19T00:46:55;1.65;;;1.30;;
59830;SDS011;45711;50.108;13.712;2023-09-19T00:49:21;5.53;;;1.40;;
59830;SDS011;45711;50.108;13.712;2023-09-19T00:51:48;2.85;;;1.35;;
59830;SDS011;45711;50.108;13.712;2023-09-19T00:54:13;3.05;;;1.35;;
59830;SDS011;45711;50.108;13.712;2023-09-19T00:56:44;7.50;;;1.10;;
59830;SDS011;45711;50.108;13.712;2023-09-19T00:59:11;7.55;;;1.30;;
59830;SDS011;45711;50.108;13.712;2023-09-19T01:01:37;3.33;;;1.50;;
59830;SDS011;45711;50.108;13.712;2023-09-19T01:04:05;3.42;;;1.35;;
59830;SDS011;45711;50.108;13.712;2023-09-19T01:06:30;4.32;;;1.50;;
59830;SDS011;45711;50.108;13.712;2023-09-19T01:08:57;8.50;;;1.48;;
59830;SDS011;45711;50.108;13.712;2023-09-19T01:11:25;5.20;;;1.42;;
59830;SDS011;45711;50.108;13.712;2023-09-19T01:14:02;4.50;;;1.40;;
59830;SDS011;45711;50.108;13.712;2023-09-19T01:16:41;7.07;;;1.50;;
59830;SDS011;45711;50.108;13.712;2023-09-19T01:19:33;2.75;;;1.42;;
59830;SDS011;45711;50.108;13.712;2023-09-19T01:22:26;3.90;;;1.30;;
59830;SDS011;45711;50.108;13.712;2023-09-19T01:25:19;5.47;;;1.63;;
59830;SDS011;45711;50.108;13.712;2023-09-19T01:28:06;3.33;;;1.67;;
59830;SDS011;45711;50.108;13.712;2023-09-19T01:30:46;5.60;;;1.58;;
59830;SDS011;45711;50.108;13.712;2023-09-19T01:33:16;3.00;;;1.77;;
59830;SDS011;45711;50.108;13.712;2023-09-19T01:35:42;1.42;;;1.00;;
59830;SDS011;45711;50.108;13.712;2023-09-19T01:38:07;2.83;;;1.60;;
59830;SDS011;45711;50.108;13.712;2023-09-19T01:40:38;1.88;;;1.48;;
59830;SDS011;45711;50.108;13.712;2023-09-19T01:43:08;3.55;;;1.52;;
59830;SDS011;45711;50.108;13.712;2023-09-19T01:48:16;5.07;;;1.55;;
59830;SDS011;45711;50.108;13.712;2023-09-19T01:50:50;5.40;;;1.55;;
59830;SDS011;45711;50.108;13.712;2023-09-19T01:55:49;4.32;;;1.60;;
59830;SDS011;45711;50.108;13.712;2023-09-19T01:58:17;3.83;;;1.52;;
59830;SDS011;45711;50.108;13.712;2023-09-19T02:00:47;5.68;;;1.77;;
59830;SDS011;45711;50.108;13.712;2023-09-19T02:03:18;5.32;;;2.10;;
59830;SDS011;45711;50.108;13.712;2023-09-19T02:05:48;6.97;;;2.38;;
59830;SDS011;45711;50.108;13.712;2023-09-19T02:08:16;7.68;;;1.95;;
59830;SDS011;45711;50.108;13.712;2023-09-19T02:10:43;5.35;;;1.83;;
59830;SDS011;45711;50.108;13.712;2023-09-19T02:13:14;3.25;;;1.80;;
59830;SDS011;45711;50.108;13.712;2023-09-19T02:15:42;3.63;;;1.70;;
59830;SDS011;45711;50.108;13.712;2023-09-19T02:18:09;5.75;;;2.15;;
59830;SDS011;45711;50.108;13.712;2023-09-19T02:20:36;4.28;;;1.80;;
59830;SDS011;45711;50.108;13.712;2023-09-19T02:23:02;4.22;;;2.38;;
59830;SDS011;45711;50.108;13.712;2023-09-19T02:25:28;4.55;;;2.20;;
59830;SDS011;45711;50.108;13.712;2023-09-19T02:27:54;6.10;;;2.00;;
59830;SDS011;45711;50.108;13.712;2023-09-19T02:30:22;8.35;;;2.50;;
59830;SDS011;45711;50.108;13.712;2023-09-19T02:32:48;3.58;;;2.08;;
59830;SDS011;45711;50.108;13.712;2023-09-19T02:35:14;3.95;;;1.77;;
59830;SDS011;45711;50.108;13.712;2023-09-19T02:37:42;6.25;;;2.20;;
59830;SDS011;45711;50.108;13.712;2023-09-19T02:40:08;3.78;;;1.70;;
59830;SDS011;45711;50.108;13.712;2023-09-19T02:42:43;3.03;;;1.75;;
59830;SDS011;45711;50.108;13.712;2023-09-19T02:45:13;3.80;;;2.10;;
59830;SDS011;45711;50.108;13.712;2023-09-19T02:47:39;2.75;;;2.00;;
59830;SDS011;45711;50.108;13.712;2023-09-19T02:50:05;5.75;;;2.03;;
59830;SDS011;45711;50.108;13.712;2023-09-19T02:52:31;3.65;;;1.90;;
59830;SDS011;45711;50.108;13.712;2023-09-19T02:54:58;5.43;;;1.60;;
59830;SDS011;45711;50.108;13.712;2023-09-19T02:57:25;5.47;;;1.95;;
59830;SDS011;45711;50.108;13.712;2023-09-19T02:59:50;4.22;;;1.65;;
59830;SDS011;45711;50.108;13.712;2023-09-19T03:02:16;2.67;;;1.55;;
59830;SDS011;45711;50.108;13.712;2023-09-19T03:04:42;3.22;;;1.67;;
59830;SDS011;45711;50.108;13.712;2023-09-19T03:07:07;7.35;;;2.30;;
59830;SDS011;45711;50.108;13.712;2023-09-19T03:09:36;3.22;;;2.10;;
59830;SDS011;45711;50.108;13.712;2023-09-19T03:12:03;4.38;;;1.85;;
59830;SDS011;45711;50.108;13.712;2023-09-19T03:14:29;3.33;;;2.00;;
59830;SDS011;45711;50.108;13.712;2023-09-19T03:17:00;4.90;;;2.13;;
59830;SDS011;45711;50.108;13.712;2023-09-19T03:19:25;3.80;;;2.00;;
59830;SDS011;45711;50.108;13.712;2023-09-19T03:21:51;3.22;;;2.00;;
59830;SDS011;45711;50.108;13.712;2023-09-19T03:24:17;3.22;;;2.08;;
59830;SDS011;45711;50.108;13.712;2023-09-19T03:26:42;2.63;;;1.63;;
59830;SDS011;45711;50.108;13.712;2023-09-19T03:29:09;3.22;;;1.52;;
59830;SDS011;45711;50.108;13.712;2023-09-19T03:31:36;2.35;;;1.92;;
59830;SDS011;45711;50.108;13.712;2023-09-19T03:34:04;5.30;;;2.15;;
59830;SDS011;45711;50.108;13.712;2023-09-19T03:36:29;6.60;;;2.47;;
59830;SDS011;45711;50.108;13.712;2023-09-19T03:38:55;3.58;;;1.63;;
59830;SDS011;45711;50.108;13.712;2023-09-19T03:41:20;5.20;;;2.63;;
59830;SDS011;45711;50.108;13.712;2023-09-19T03:43:46;5.55;;;1.67;;
59830;SDS011;45711;50.108;13.712;2023-09-19T03:46:13;3.42;;;2.40;;
59830;SDS011;45711;50.108;13.712;2023-09-19T03:48:40;6.13;;;2.50;;
59830;SDS011;45711;50.108;13.712;2023-09-19T03:51:05;5.63;;;2.40;;
59830;SDS011;45711;50.108;13.712;2023-09-19T03:53:31;5.55;;;2.42;;
59830;SDS011;45711;50.108;13.712;2023-09-19T03:55:56;9.50;;;3.03;;
59830;SDS011;45711;50.108;13.712;2023-09-19T03:58:22;3.85;;;2.40;;
59830;SDS011;45711;50.108;13.712;2023-09-19T04:00:48;4.70;;;2.30;;
59830;SDS011;45711;50.108;13.712;2023-09-19T04:03:16;5.40;;;2.10;;
59830;SDS011;45711;50.108;13.712;2023-09-19T04:05:45;2.25;;;1.73;;
59830;SDS011;45711;50.108;13.712;2023-09-19T04:08:12;5.15;;;2.25;;
59830;SDS011;45711;50.108;13.712;2023-09-19T04:10:37;3.60;;;2.33;;
59830;SDS011;45711;50.108;13.712;2023-09-19T04:13:03;3.60;;;1.85;;
59830;SDS011;45711;50.108;13.712;2023-09-19T04:15:29;3.60;;;2.47;;
59830;SDS011;45711;50.108;13.712;2023-09-19T04:17:54;5.90;;;1.95;;
59830;SDS011;45711;50.108;13.712;2023-09-19T04:20:21;6.35;;;3.10;;
59830;SDS011;45711;50.108;13.712;2023-09-19T04:22:48;8.48;;;2.90;;
59830;SDS011;45711;50.108;13.712;2023-09-19T04:25:14;6.97;;;2.58;;
59830;SDS011;45711;50.108;13.712;2023-09-19T04:27:39;6.35;;;2.90;;
59830;SDS011;45711;50.108;13.712;2023-09-19T04:30:07;9.52;;;3.25;;
59830;SDS011;45711;50.108;13.712;2023-09-19T04:32:37;6.20;;;2.53;;
59830;SDS011;45711;50.108;13.712;2023-09-19T04:35:06;5.50;;;2.63;;
59830;SDS011;45711;50.108;13.712;2023-09-19T04:37:34;6.25;;;2.80;;
59830;SDS011;45711;50.108;13.712;2023-09-19T04:40:03;3.67;;;2.90;;
59830;SDS011;45711;50.108;13.712;2023-09-19T04:42:31;5.43;;;2.83;;
59830;SDS011;45711;50.108;13.712;2023-09-19T04:44:56;5.45;;;3.38;;
59830;SDS011;45711;50.108;13.712;2023-09-19T04:47:22;4.47;;;3.20;;
59830;SDS011;45711;50.108;13.712;2023-09-19T04:49:47;5.57;;;3.13;;
59830;SDS011;45711;50.108;13.712;2023-09-19T04:52:13;6.10;;;3.00;;
59830;SDS011;45711;50.108;13.712;2023-09-19T04:54:41;4.47;;;2.60;;
59830;SDS011;45711;50.108;13.712;2023-09-19T04:57:07;7.22;;;2.75;;
59830;SDS011;45711;50.108;13.712;2023-09-19T04:59:32;3.83;;;2.20;;
59830;SDS011;45711;50.108;13.712;2023-09-19T05:01:58;6.45;;;3.00;;
59830;SDS011;45711;50.108;13.712;2023-09-19T05:04:23;5.63;;;2.65;;
59830;SDS011;45711;50.108;13.712;2023-09-19T05:06:52;5.40;;;2.58;;
59830;SDS011;45711;50.108;13.712;2023-09-19T05:09:18;9.73;;;2.63;;
59830;SDS011;45711;50.108;13.712;2023-09-19T05:11:49;3.13;;;2.40;;
59830;SDS011;45711;50.108;13.712;2023-09-19T05:14:16;4.70;;;2.45;;
59830;SDS011;45711;50.108;13.712;2023-09-19T05:16:42;4.65;;;2.30;;
59830;SDS011;45711;50.108;13.712;2023-09-19T05:19:09;5.45;;;2.38;;
59830;SDS011;45711;50.108;13.712;2023-09-19T05:21:37;4.43;;;2.40;;
59830;SDS011;45711;50.108;13.712;2023-09-19T05:24:04;6.68;;;2.50;;
59830;SDS011;45711;50.108;13.712;2023-09-19T05:26:31;4.70;;;2.30;;
59830;SDS011;45711;50.108;13.712;2023-09-19T05:28:58;5.63;;;2.50;;
59830;SDS011;45711;50.108;13.712;2023-09-19T05:31:23;6.78;;;2.45;;
59830;SDS011;45711;50.108;13.712;2023-09-19T05:33:50;6.18;;;2.20;;
59830;SDS011;45711;50.108;13.712;2023-09-19T05:36:18;3.97;;;2.20;;
59830;SDS011;45711;50.108;13.712;2023-09-19T05:38:43;3.90;;;2.00;;
59830;SDS011;45711;50.108;13.712;2023-09-19T05:41:09;5.40;;;2.00;;
59830;SDS011;45711;50.108;13.712;2023-09-19T05:43:38;3.17;;;2.05;;
59830;SDS011;45711;50.108;13.712;2023-09-19T05:46:07;5.70;;;2.60;;
59830;SDS011;45711;50.108;13.712;2023-09-19T05:48:33;4.38;;;1.85;;
59830;SDS011;45711;50.108;13.712;2023-09-19T05:50:59;6.55;;;2.15;;
59830;SDS011;45711;50.108;13.712;2023-09-19T05:53:26;5.25;;;1.75;;
59830;SDS011;45711;50.108;13.712;2023-09-19T05:55:51;5.93;;;1.98;;
59830;SDS011;45711;50.108;13.712;2023-09-19T05:58:18;5.32;;;1.90;;
59830;SDS011;45711;50.108;13.712;2023-09-19T06:00:45;2.28;;;1.50;;
59830;SDS011;45711;50.108;13.712;2023-09-19T06:03:13;9.07;;;2.17;;
59830;SDS011;45711;50.108;13.712;2023-09-19T06:05:39;5.78;;;2.20;;
59830;SDS011;45711;50.108;13.712;2023-09-19T06:08:08;6.15;;;2.20;;
59830;SDS011;45711;50.108;13.712;2023-09-19T06:10:34;5.53;;;1.98;;
59830;SDS011;45711;50.108;13.712;2023-09-19T06:13:00;5.88;;;1.95;;
59830;SDS011;45711;50.108;13.712;2023-09-19T06:15:29;2.45;;;1.23;;
59830;SDS011;45711;50.108;13.712;2023-09-19T06:18:00;4.65;;;1.88;;
59830;SDS011;45711;50.108;13.712;2023-09-19T06:20:28;2.30;;;1.33;;
59830;SDS011;45711;50.108;13.712;2023-09-19T06:22:54;3.47;;;1.40;;
59830;SDS011;45711;50.108;13.712;2023-09-19T06:25:20;5.47;;;1.67;;
59830;SDS011;45711;50.108;13.712;2023-09-19T06:27:50;9.13;;;1.73;;
59830;SDS011;45711;50.108;13.712;2023-09-19T06:30:19;2.05;;;1.48;;
59830;SDS011;45711;50.108;13.712;2023-09-19T06:32:46;5.35;;;1.75;;
59830;SDS011;45711;50.108;13.712;2023-09-19T06:35:13;2.13;;;1.23;;
59830;SDS011;45711;50.108;13.712;2023-09-19T06:37:42;3.58;;;1.48;;
59830;SDS011;45711;50.108;13.712;2023-09-19T06:40:08;2.63;;;1.60;;
59830;SDS011;45711;50.108;13.712;2023-09-19T06:42:40;4.90;;;1.67;;
59830;SDS011;45711;50.108;13.712;2023-09-19T06:47:43;2.95;;;1.67;;
59830;SDS011;45711;50.108;13.712;2023-09-19T06:50:09;8.65;;;1.48;;
59830;SDS011;45711;50.108;13.712;2023-09-19T06:52:38;6.63;;;1.48;;
59830;SDS011;45711;50.108;13.712;2023-09-19T06:55:06;3.53;;;1.55;;
59830;SDS011;45711;50.108;13.712;2023-09-19T06:57:31;3.15;;;1.30;;
59830;SDS011;45711;50.108;13.712;2023-09-19T06:59:57;4.80;;;1.98;;
59830;SDS011;45711;50.108;13.712;2023-09-19T07:02:23;4.03;;;1.75;;
59830;SDS011;45711;50.108;13.712;2023-09-19T07:04:48;2.33;;;1.02;;
59830;SDS011;45711;50.108;13.712;2023-09-19T07:07:14;6.88;;;1.50;;
59830;SDS011;45711;50.108;13.712;2023-09-19T07:09:40;2.10;;;1.05;;
59830;SDS011;45711;50.108;13.712;2023-09-19T07:12:08;3.03;;;1.02;;
59830;SDS011;45711;50.108;13.712;2023-09-19T07:14:34;2.75;;;1.10;;
59830;SDS011;45711;50.108;13.712;2023-09-19T07:16:59;2.22;;;1.42;;
59830;SDS011;45711;50.108;13.712;2023-09-19T07:19:25;2.17;;;1.10;;
59830;SDS011;45711;50.108;13.712;2023-09-19T07:21:53;4.10;;;1.35;;
59830;SDS011;45711;50.108;13.712;2023-09-19T07:24:19;3.40;;;1.80;;
59830;SDS011;45711;50.108;13.712;2023-09-19T07:26:45;4.80;;;1.50;;
59830;SDS011;45711;50.108;13.712;2023-09-19T07:29:12;4.35;;;1.60;;
59830;SDS011;45711;50.108;13.712;2023-09-19T07:31:37;5.45;;;2.10;;
59830;SDS011;45711;50.108;13.712;2023-09-19T07:34:03;4.38;;;1.73;;
59830;SDS011;45711;50.108;13.712;2023-09-19T07:36:30;3.03;;;1.77;;
59830;SDS011;45711;50.108;13.712;2023-09-19T07:38:55;2.15;;;1.00;;
59830;SDS011;45711;50.108;13.712;2023-09-19T07:41:23;1.58;;;0.93;;
59830;SDS011;45711;50.108;13.712;2023-09-19T07:43:48;7.43;;;1.92;;
59830;SDS011;45711;50.108;13.712;2023-09-19T07:46:15;5.05;;;1.17;;
59830;SDS011;45711;50.108;13.712;2023-09-19T07:48:41;2.35;;;1.40;;
59830;SDS011;45711;50.108;13.712;2023-09-19T07:51:12;5.38;;;1.80;;
59830;SDS011;45711;50.108;13.712;2023-09-19T07:53:41;0.70;;;0.60;;
59830;SDS011;45711;50.108;13.712;2023-09-19T07:56:10;9.63;;;1.67;;
59830;SDS011;45711;50.108;13.712;2023-09-19T07:58:38;3.53;;;1.58;;
59830;SDS011;45711;50.108;13.712;2023-09-19T08:01:06;6.15;;;3.50;;
59830;SDS011;45711;50.108;13.712;2023-09-19T08:03:34;3.28;;;1.10;;
59830;SDS011;45711;50.108;13.712;2023-09-19T08:06:00;1.38;;;1.00;;
59830;SDS011;45711;50.108;13.712;2023-09-19T08:08:26;2.13;;;1.20;;
59830;SDS011;45711;50.108;13.712;2023-09-19T08:10:55;1.77;;;0.95;;
59830;SDS011;45711;50.108;13.712;2023-09-19T08:13:21;3.70;;;1.08;;
59830;SDS011;45711;50.108;13.712;2023-09-19T08:15:47;3.20;;;1.20;;
59830;SDS011;45711;50.108;13.712;2023-09-19T08:18:13;3.38;;;1.05;;
59830;SDS011;45711;50.108;13.712;2023-09-19T08:20:40;3.28;;;1.00;;
59830;SDS011;45711;50.108;13.712;2023-09-19T08:23:09;2.80;;;1.05;;
59830;SDS011;45711;50.108;13.712;2023-09-19T08:25:34;6.13;;;1.10;;
59830;SDS011;45711;50.108;13.712;2023-09-19T08:28:00;0.93;;;0.70;;
59830;SDS011;45711;50.108;13.712;2023-09-19T08:30:28;1.55;;;0.75;;
59830;SDS011;45711;50.108;13.712;2023-09-19T08:32:56;2.45;;;1.00;;
59830;SDS011;45711;50.108;13.712;2023-09-19T08:35:23;5.50;;;0.95;;
59830;SDS011;45711;50.108;13.712;2023-09-19T08:37:50;1.85;;;1.08;;
59830;SDS011;45711;50.108;13.712;2023-09-19T08:40:16;1.33;;;0.80;;
59830;SDS011;45711;50.108;13.712;2023-09-19T08:42:49;3.25;;;0.82;;
59830;SDS011;45711;50.108;13.712;2023-09-19T08:45:15;1.75;;;0.80;;
59830;SDS011;45711;50.108;13.712;2023-09-19T08:47:45;2.05;;;0.90;;
59830;SDS011;45711;50.108;13.712;2023-09-19T08:50:23;2.25;;;0.88;;
59830;SDS011;45711;50.108;13.712;2023-09-19T08:52:54;2.50;;;1.35;;
59830;SDS011;45711;50.108;13.712;2023-09-19T08:55:23;4.85;;;1.00;;
59830;SDS011;45711;50.108;13.712;2023-09-19T08:57:52;2.35;;;0.60;;
59830;SDS011;45711;50.108;13.712;2023-09-19T09:00:24;3.60;;;0.85;;
59830;SDS011;45711;50.108;13.712;2023-09-19T09:02:52;2.78;;;0.80;;
59830;SDS011;45711;50.108;13.712;2023-09-19T09:05:19;0.85;;;0.68;;
59830;SDS011;45711;50.108;13.712;2023-09-19T09:07:48;1.67;;;0.95;;
59830;SDS011;45711;50.108;13.712;2023-09-19T09:10:16;2.40;;;1.10;;
59830;SDS011;45711;50.108;13.712;2023-09-19T09:12:42;2.42;;;1.00;;
59830;SDS011;45711;50.108;13.712;2023-09-19T09:15:09;3.13;;;0.80;;
59830;SDS011;45711;50.108;13.712;2023-09-19T09:17:37;1.25;;;0.77;;
59830;SDS011;45711;50.108;13.712;2023-09-19T09:20:03;1.67;;;0.80;;
59830;SDS011;45711;50.108;13.712;2023-09-19T09:22:35;1.50;;;0.85;;
59830;SDS011;45711;50.108;13.712;2023-09-19T09:25:01;3.15;;;1.00;;
59830;SDS011;45711;50.108;13.712;2023-09-19T09:27:30;2.42;;;1.10;;
59830;SDS011;45711;50.108;13.712;2023-09-19T09:29:57;2.90;;;0.90;;
59830;SDS011;45711;50.108;13.712;2023-09-19T09:32:24;8.60;;;1.08;;
59830;SDS011;45711;50.108;13.712;2023-09-19T09:34:51;2.00;;;0.90;;
59830;SDS011;45711;50.108;13.712;2023-09-19T09:37:17;2.10;;;0.90;;
59830;SDS011;45711;50.108;13.712;2023-09-19T09:39:51;1.00;;;0.70;;
59830;SDS011;45711;50.108;13.712;2023-09-19T09:42:35;1.13;;;0.80;;
59830;SDS011;45711;50.108;13.712;2023-09-19T09:45:13;3.35;;;1.00;;
59830;SDS011;45711;50.108;13.712;2023-09-19T09:47:43;0.88;;;0.80;;
59830;SDS011;45711;50.108;13.712;2023-09-19T09:50:23;1.92;;;0.90;;
59830;SDS011;45711;50.108;13.712;2023-09-19T09:53:24;0.82;;;0.70;;
59830;SDS011;45711;50.108;13.712;2023-09-19T09:55:59;5.43;;;0.95;;
59830;SDS011;45711;50.108;13.712;2023-09-19T09:58:32;1.20;;;1.00;;
59830;SDS011;45711;50.108;13.712;2023-09-19T10:00:58;2.35;;;0.82;;
59830;SDS011;45711;50.108;13.712;2023-09-19T10:03:31;3.25;;;0.95;;
59830;SDS011;45711;50.108;13.712;2023-09-19T10:05:59;2.60;;;1.13;;
59830;SDS011;45711;50.108;13.712;2023-09-19T10:08:28;1.42;;;0.80;;
59830;SDS011;45711;50.108;13.712;2023-09-19T10:10:56;2.35;;;0.90;;
59830;SDS011;45711;50.108;13.712;2023-09-19T10:13:31;1.38;;;0.90;;
59830;SDS011;45711;50.108;13.712;2023-09-19T10:16:07;1.48;;;0.90;;
59830;SDS011;45711;50.108;13.712;2023-09-19T10:18:36;1.42;;;1.00;;
59830;SDS011;45711;50.108;13.712;2023-09-19T10:21:04;1.58;;;0.88;;
59830;SDS011;45711;50.108;13.712;2023-09-19T10:23:31;2.00;;;0.80;;
59830;SDS011;45711;50.108;13.712;2023-09-19T10:25:59;3.35;;;1.02;;
59830;SDS011;45711;50.108;13.712;2023-09-19T10:28:27;2.42;;;0.80;;
59830;SDS011;45711;50.108;13.712;2023-09-19T10:30:57;2.67;;;1.00;;
59830;SDS011;45711;50.108;13.712;2023-09-19T10:33:25;4.32;;;0.80;;
59830;SDS011;45711;50.108;13.712;2023-09-19T10:35:51;2.22;;;0.90;;
59830;SDS011;45711;50.108;13.712;2023-09-19T10:38:17;3.85;;;0.82;;
59830;SDS011;45711;50.108;13.712;2023-09-19T10:40:48;3.60;;;1.13;;
59830;SDS011;45711;50.108;13.712;2023-09-19T10:43:18;0.80;;;0.50;;
59830;SDS011;45711;50.108;13.712;2023-09-19T10:45:46;3.15;;;0.73;;
59830;SDS011;45711;50.108;13.712;2023-09-19T10:48:16;1.83;;;0.80;;
59830;SDS011;45711;50.108;13.712;2023-09-19T10:50:45;1.90;;;0.70;;
59830;SDS011;45711;50.108;13.712;2023-09-19T10:53:16;2.42;;;0.88;;
59830;SDS011;45711;50.108;13.712;2023-09-19T10:55:47;1.73;;;0.60;;
59830;SDS011;45711;50.108;13.712;2023-09-19T10:58:23;2.63;;;1.00;;
59830;SDS011;45711;50.108;13.712;2023-09-19T11:00:51;2.17;;;0.90;;
59830;SDS011;45711;50.108;13.712;2023-09-19T11:03:23;1.63;;;0.90;;
59830;SDS011;45711;50.108;13.712;2023-09-19T11:06:02;2.15;;;0.90;;
59830;SDS011;45711;50.108;13.712;2023-09-19T11:14:30;10.63;;;0.95;;
59830;SDS011;45711;50.108;13.712;2023-09-19T11:20:22;5.68;;;0.90;;
59830;SDS011;45711;50.108;13.712;2023-09-19T11:23:19;3.25;;;0.82;;
59830;SDS011;45711;50.108;13.712;2023-09-19T11:25:48;2.42;;;0.77;;
59830;SDS011;45711;50.108;13.712;2023-09-19T11:28:27;1.45;;;0.90;;
59830;SDS011;45711;50.108;13.712;2023-09-19T11:30:57;1.33;;;0.85;;
59830;SDS011;45711;50.108;13.712;2023-09-19T11:33:23;1.45;;;0.80;;
59830;SDS011;45711;50.108;13.712;2023-09-19T11:36:00;2.77;;;0.80;;
59830;SDS011;45711;50.108;13.712;2023-09-19T11:41:36;1.25;;;0.70;;
59830;SDS011;45711;50.108;13.712;2023-09-19T11:47:03;1.58;;;0.80;;
59830;SDS011;45711;50.108;13.712;2023-09-19T11:49:31;1.70;;;0.95;;
59830;SDS011;45711;50.108;13.712;2023-09-19T11:51:59;1.92;;;0.77;;
59830;SDS011;45711;50.108;13.712;2023-09-19T11:54:26;4.00;;;0.80;;
59830;SDS011;45711;50.108;13.712;2023-09-19T11:56:57;1.95;;;0.82;;
59830;SDS011;45711;50.108;13.712;2023-09-19T11:59:24;2.13;;;0.77;;
59830;SDS011;45711;50.108;13.712;2023-09-19T12:01:53;2.40;;;1.20;;
59830;SDS011;45711;50.108;13.712;2023-09-19T12:04:30;1.70;;;0.93;;
59830;SDS011;45711;50.108;13.712;2023-09-19T12:07:04;1.23;;;0.80;;
59830;SDS011;45711;50.108;13.712;2023-09-19T12:09:31;1.67;;;0.70;;
59830;SDS011;45711;50.108;13.712;2023-09-19T12:11:57;4.22;;;0.90;;
59830;SDS011;45711;50.108;13.712;2023-09-19T12:14:22;1.30;;;0.90;;
59830;SDS011;45711;50.108;13.712;2023-09-19T12:16:50;4.15;;;1.08;;
59830;SDS011;45711;50.108;13.712;2023-09-19T12:19:20;4.93;;;0.70;;
59830;SDS011;45711;50.108;13.712;2023-09-19T12:21:53;2.97;;;1.05;;
59830;SDS011;45711;50.108;13.712;2023-09-19T12:24:21;1.40;;;0.93;;
59830;SDS011;45711;50.108;13.712;2023-09-19T12:26:46;3.80;;;1.05;;
59830;SDS011;45711;50.108;13.712;2023-09-19T12:29:13;3.17;;;1.00;;
59830;SDS011;45711;50.108;13.712;2023-09-19T12:31:49;4.10;;;1.00;;
59830;SDS011;45711;50.108;13.712;2023-09-19T12:34:23;2.75;;;1.00;;
59830;SDS011;45711;50.108;13.712;2023-09-19T12:37:03;3.28;;;1.00;;
59830;SDS011;45711;50.108;13.712;2023-09-19T12:39:49;1.67;;;0.80;;
59830;SDS011;45711;50.108;13.712;2023-09-19T12:42:19;3.15;;;0.90;;
59830;SDS011;45711;50.108;13.712;2023-09-19T12:44:47;2.53;;;1.00;;
59830;SDS011;45711;50.108;13.712;2023-09-19T12:47:15;2.00;;;0.90;;
59830;SDS011;45711;50.108;13.712;2023-09-19T12:52:38;0.98;;;0.70;;
59830;SDS011;45711;50.108;13.712;2023-09-19T12:55:06;1.67;;;1.00;;
59830;SDS011;45711;50.108;13.712;2023-09-19T12:57:33;1.55;;;0.90;;
59830;SDS011;45711;50.108;13.712;2023-09-19T13:00:00;1.35;;;0.93;;
59830;SDS011;45711;50.108;13.712;2023-09-19T13:02:25;3.97;;;1.10;;
59830;SDS011;45711;50.108;13.712;2023-09-19T13:04:53;1.52;;;0.85;;
59830;SDS011;45711;50.108;13.712;2023-09-19T13:07:39;1.38;;;0.80;;
59830;SDS011;45711;50.108;13.712;2023-09-19T13:10:09;1.90;;;1.00;;
59830;SDS011;45711;50.108;13.712;2023-09-19T13:12:35;2.00;;;0.80;;
59830;SDS011;45711;50.108;13.712;2023-09-19T13:15:07;0.80;;;0.60;;
59830;SDS011;45711;50.108;13.712;2023-09-19T13:17:44;4.55;;;1.08;;
59830;SDS011;45711;50.108;13.712;2023-09-19T13:20:20;2.23;;;0.87;;
59830;SDS011;45711;50.108;13.712;2023-09-19T13:22:49;1.27;;;0.88;;
59830;SDS011;45711;50.108;13.712;2023-09-19T13:25:20;0.90;;;0.73;;
59830;SDS011;45711;50.108;13.712;2023-09-19T13:27:47;6.93;;;0.82;;
59830;SDS011;45711;50.108;13.712;2023-09-19T13:30:16;3.75;;;0.90;;
59830;SDS011;45711;50.108;13.712;2023-09-19T13:32:42;0.93;;;0.70;;
59830;SDS011;45711;50.108;13.712;2023-09-19T13:35:08;2.92;;;1.10;;
59830;SDS011;45711;50.108;13.712;2023-09-19T13:37:34;3.78;;;0.90;;
59830;SDS011;45711;50.108;13.712;2023-09-19T13:40:06;4.13;;;1.17;;
59830;SDS011;45711;50.108;13.712;2023-09-19T13:42:34;2.10;;;0.70;;
59830;SDS011;45711;50.108;13.712;2023-09-19T13:45:03;7.13;;;1.13;;
59830;SDS011;45711;50.108;13.712;2023-09-19T13:47:29;1.05;;;0.65;;
59830;SDS011;45711;50.108;13.712;2023-09-19T13:49:55;1.27;;;0.73;;
59830;SDS011;45711;50.108;13.712;2023-09-19T13:52:21;2.08;;;0.95;;
59830;SDS011;45711;50.108;13.712;2023-09-19T13:54:48;1.17;;;0.73;;
59830;SDS011;45711;50.108;13.712;2023-09-19T13:57:13;3.40;;;0.80;;
59830;SDS011;45711;50.108;13.712;2023-09-19T13:59:40;1.45;;;0.90;;
59830;SDS011;45711;50.108;13.712;2023-09-19T14:02:06;5.70;;;1.00;;
59830;SDS011;45711;50.108;13.712;2023-09-19T14:04:32;8.45;;;0.80;;
59830;SDS011;45711;50.108;13.712;2023-09-19T14:06:59;3.10;;;0.90;;
59830;SDS011;45711;50.108;13.712;2023-09-19T14:09:25;1.30;;;0.90;;
59830;SDS011;45711;50.108;13.712;2023-09-19T14:11:51;1.77;;;0.77;;
59830;SDS011;45711;50.108;13.712;2023-09-19T14:14:17;3.85;;;1.00;;
59830;SDS011;45711;50.108;13.712;2023-09-19T14:16:44;4.75;;;0.80;;
59830;SDS011;45711;50.108;13.712;2023-09-19T14:19:10;5.35;;;1.27;;
59830;SDS011;45711;50.108;13.712;2023-09-19T14:21:36;2.45;;;0.90;;
59830;SDS011;45711;50.108;13.712;2023-09-19T14:24:01;3.10;;;1.30;;
59830;SDS011;45711;50.108;13.712;2023-09-19T14:26:32;2.15;;;1.00;;
59830;SDS011;45711;50.108;13.712;2023-09-19T14:28:58;1.90;;;1.02;;
59830;SDS011;45711;50.108;13.712;2023-09-19T14:31:24;2.35;;;0.80;;
59830;SDS011;45711;50.108;13.712;2023-09-19T14:33:54;2.47;;;1.00;;
59830;SDS011;45711;50.108;13.712;2023-09-19T14:36:24;1.17;;;0.93;;
59830;SDS011;45711;50.108;13.712;2023-09-19T14:38:52;1.83;;;0.90;;
59830;SDS011;45711;50.108;13.712;2023-09-19T14:41:24;1.75;;;0.93;;
59830;SDS011;45711;50.108;13.712;2023-09-19T14:43:50;2.08;;;0.90;;
59830;SDS011;45711;50.108;13.712;2023-09-19T14:46:16;1.48;;;1.00;;
59830;SDS011;45711;50.108;13.712;2023-09-19T14:48:43;2.88;;;1.00;;
59830;SDS011;45711;50.108;13.712;2023-09-19T14:51:11;1.65;;;1.10;;
59830;SDS011;45711;50.108;13.712;2023-09-19T14:53:37;2.22;;;1.00;;
59830;SDS011;45711;50.108;13.712;2023-09-19T14:56:07;3.42;;;1.10;;
59830;SDS011;45711;50.108;13.712;2023-09-19T14:58:33;2.10;;;1.13;;
59830;SDS011;45711;50.108;13.712;2023-09-19T15:01:05;3.35;;;1.08;;
59830;SDS011;45711;50.108;13.712;2023-09-19T15:03:32;2.28;;;1.02;;
59830;SDS011;45711;50.108;13.712;2023-09-19T15:05:59;1.20;;;0.85;;